sensor_id;sensor_type;location;lat;lon;timestamp;P1;durP1;ratioP1;P2;durP2;ratioP2
77520;SDS011;66633;47.628;19.158;2023-03-04T00:00:19;45.57;;;16.40;;
77520;SDS011;66633;47.628;19.158;2023-03-04T00:02:44;24.42;;;10.90;;
77520;SDS011;66633;47.628;19.158;2023-03-04T00:05:10;25.08;;;10.55;;
77520;SDS011;66633;47.628;19.158;2023-03-04T00:07:35;23.93;;;9.63;;
77520;SDS011;66633;47.628;19.158;2023-03-04T00:10:01;35.80;;;14.10;;
77520;SDS011;66633;47.628;19.158;2023-03-04T00:12:26;38.60;;;15.88;;
77520;SDS011;66633;47.628;19.158;2023-03-04T00:14:51;27.10;;;11.23;;
77520;SDS011;66633;47.628;19.158;2023-03-04T00:17:16;20.33;;;9.20;;
77520;SDS011;66633;47.628;19.158;2023-03-04T00:19:42;24.25;;;9.98;;
77520;SDS011;66633;47.628;19.158;2023-03-04T00:22:08;25.30;;;12.23;;
77520;SDS011;66633;47.628;19.158;2023-03-04T00:24:33;22.65;;;9.38;;
77520;SDS011;66633;47.628;19.158;2023-03-04T00:26:59;33.53;;;13.30;;
77520;SDS011;66633;47.628;19.158;2023-03-04T00:29:24;25.07;;;10.37;;
77520;SDS011;66633;47.628;19.158;2023-03-04T00:31:49;37.03;;;14.95;;
77520;SDS011;66633;47.628;19.158;2023-03-04T00:34:15;27.33;;;11.77;;
77520;SDS011;66633;47.628;19.158;2023-03-04T00:36:40;28.38;;;11.15;;
77520;SDS011;66633;47.628;19.158;2023-03-04T00:39:08;24.92;;;11.35;;
77520;SDS011;66633;47.628;19.158;2023-03-04T00:41:33;39.50;;;16.08;;
77520;SDS011;66633;47.628;19.158;2023-03-04T00:43:59;33.73;;;14.57;;
77520;SDS011;66633;47.628;19.158;2023-03-04T00:46:24;41.60;;;20.63;;
77520;SDS011;66633;47.628;19.158;2023-03-04T00:48:49;29.30;;;11.90;;
77520;SDS011;66633;47.628;19.158;2023-03-04T00:51:14;29.60;;;12.07;;
77520;SDS011;66633;47.628;19.158;2023-03-04T00:53:40;32.00;;;12.53;;
77520;SDS011;66633;47.628;19.158;2023-03-04T00:56:05;29.00;;;12.70;;
77520;SDS011;66633;47.628;19.158;2023-03-04T00:58:30;24.67;;;10.60;;
77520;SDS011;66633;47.628;19.158;2023-03-04T01:00:56;22.60;;;9.43;;
77520;SDS011;66633;47.628;19.158;2023-03-04T01:03:21;22.42;;;10.13;;
77520;SDS011;66633;47.628;19.158;2023-03-04T01:05:46;26.80;;;10.38;;
77520;SDS011;66633;47.628;19.158;2023-03-04T01:08:12;23.70;;;9.87;;
77520;SDS011;66633;47.628;19.158;2023-03-04T01:10:37;18.67;;;9.13;;
77520;SDS011;66633;47.628;19.158;2023-03-04T01:13:02;20.17;;;8.30;;
77520;SDS011;66633;47.628;19.158;2023-03-04T01:15:27;29.40;;;11.50;;
77520;SDS011;66633;47.628;19.158;2023-03-04T01:17:53;21.08;;;7.63;;
77520;SDS011;66633;47.628;19.158;2023-03-04T01:20:18;21.67;;;7.90;;
77520;SDS011;66633;47.628;19.158;2023-03-04T01:22:44;23.48;;;11.85;;
77520;SDS011;66633;47.628;19.158;2023-03-04T01:25:09;16.95;;;8.30;;
77520;SDS011;66633;47.628;19.158;2023-03-04T01:27:34;16.38;;;7.03;;
77520;SDS011;66633;47.628;19.158;2023-03-04T01:30:00;19.90;;;7.28;;
77520;SDS011;66633;47.628;19.158;2023-03-04T01:32:25;17.50;;;7.33;;
77520;SDS011;66633;47.628;19.158;2023-03-04T01:34:50;19.57;;;7.73;;
77520;SDS011;66633;47.628;19.158;2023-03-04T01:37:16;27.37;;;10.90;;
77520;SDS011;66633;47.628;19.158;2023-03-04T01:39:42;22.45;;;9.10;;
77520;SDS011;66633;47.628;19.158;2023-03-04T01:42:12;20.93;;;8.40;;
77520;SDS011;66633;47.628;19.158;2023-03-04T01:44:41;21.83;;;8.52;;
77520;SDS011;66633;47.628;19.158;2023-03-04T01:47:07;25.85;;;10.43;;
77520;SDS011;66633;47.628;19.158;2023-03-04T01:49:33;25.52;;;10.75;;
77520;SDS011;66633;47.628;19.158;2023-03-04T01:51:58;23.83;;;10.00;;
77520;SDS011;66633;47.628;19.158;2023-03-04T01:54:24;22.27;;;9.73;;
77520;SDS011;66633;47.628;19.158;2023-03-04T01:56:49;24.07;;;9.27;;
77520;SDS011;66633;47.628;19.158;2023-03-04T01:59:19;17.00;;;5.95;;
77520;SDS011;66633;47.628;19.158;2023-03-04T02:01:48;22.08;;;8.07;;
77520;SDS011;66633;47.628;19.158;2023-03-04T02:04:17;22.67;;;7.40;;
77520;SDS011;66633;47.628;19.158;2023-03-04T02:06:44;16.95;;;5.68;;
77520;SDS011;66633;47.628;19.158;2023-03-04T02:09:10;20.85;;;8.25;;
77520;SDS011;66633;47.628;19.158;2023-03-04T02:11:36;24.33;;;10.50;;
77520;SDS011;66633;47.628;19.158;2023-03-04T02:14:02;24.38;;;10.43;;
77520;SDS011;66633;47.628;19.158;2023-03-04T02:16:27;22.95;;;9.27;;
77520;SDS011;66633;47.628;19.158;2023-03-04T02:18:53;21.80;;;8.82;;
77520;SDS011;66633;47.628;19.158;2023-03-04T02:23:58;27.85;;;12.57;;
77520;SDS011;66633;47.628;19.158;2023-03-04T02:26:27;20.33;;;7.60;;
77520;SDS011;66633;47.628;19.158;2023-03-04T02:28:53;23.48;;;8.02;;
77520;SDS011;66633;47.628;19.158;2023-03-04T02:31:21;28.35;;;11.07;;
77520;SDS011;66633;47.628;19.158;2023-03-04T02:33:47;26.92;;;11.43;;
77520;SDS011;66633;47.628;19.158;2023-03-04T02:36:12;20.88;;;8.80;;
77520;SDS011;66633;47.628;19.158;2023-03-04T02:38:37;28.75;;;12.25;;
77520;SDS011;66633;47.628;19.158;2023-03-04T02:41:03;28.67;;;11.77;;
77520;SDS011;66633;47.628;19.158;2023-03-04T02:43:29;40.50;;;14.80;;
77520;SDS011;66633;47.628;19.158;2023-03-04T02:45:54;30.80;;;12.40;;
77520;SDS011;66633;47.628;19.158;2023-03-04T02:48:20;32.00;;;10.70;;
77520;SDS011;66633;47.628;19.158;2023-03-04T02:50:52;45.13;;;16.08;;
77520;SDS011;66633;47.628;19.158;2023-03-04T02:53:17;27.08;;;11.75;;
77520;SDS011;66633;47.628;19.158;2023-03-04T02:55:44;40.60;;;13.95;;
77520;SDS011;66633;47.628;19.158;2023-03-04T02:58:10;39.58;;;14.57;;
77520;SDS011;66633;47.628;19.158;2023-03-04T03:00:36;27.05;;;10.10;;
77520;SDS011;66633;47.628;19.158;2023-03-04T03:03:01;50.42;;;20.02;;
77520;SDS011;66633;47.628;19.158;2023-03-04T03:05:28;33.03;;;12.88;;
77520;SDS011;66633;47.628;19.158;2023-03-04T03:07:54;50.47;;;18.75;;
77520;SDS011;66633;47.628;19.158;2023-03-04T03:10:19;57.42;;;21.67;;
77520;SDS011;66633;47.628;19.158;2023-03-04T03:12:45;39.22;;;14.48;;
77520;SDS011;66633;47.628;19.158;2023-03-04T03:15:10;38.53;;;14.55;;
77520;SDS011;66633;47.628;19.158;2023-03-04T03:17:35;35.63;;;13.60;;
77520;SDS011;66633;47.628;19.158;2023-03-04T03:20:01;33.30;;;12.35;;
77520;SDS011;66633;47.628;19.158;2023-03-04T03:22:26;25.35;;;9.43;;
77520;SDS011;66633;47.628;19.158;2023-03-04T03:24:52;27.10;;;9.27;;
77520;SDS011;66633;47.628;19.158;2023-03-04T03:27:17;40.33;;;17.10;;
77520;SDS011;66633;47.628;19.158;2023-03-04T03:29:42;39.80;;;15.93;;
77520;SDS011;66633;47.628;19.158;2023-03-04T03:32:07;30.20;;;11.17;;
77520;SDS011;66633;47.628;19.158;2023-03-04T03:34:33;26.33;;;9.45;;
77520;SDS011;66633;47.628;19.158;2023-03-04T03:36:58;28.40;;;10.35;;
77520;SDS011;66633;47.628;19.158;2023-03-04T03:39:23;20.60;;;8.07;;
77520;SDS011;66633;47.628;19.158;2023-03-04T03:41:48;19.97;;;8.47;;
77520;SDS011;66633;47.628;19.158;2023-03-04T03:44:14;21.33;;;8.33;;
77520;SDS011;66633;47.628;19.158;2023-03-04T03:46:39;18.05;;;7.43;;
77520;SDS011;66633;47.628;19.158;2023-03-04T03:49:04;20.08;;;7.22;;
77520;SDS011;66633;47.628;19.158;2023-03-04T03:51:30;27.67;;;12.13;;
77520;SDS011;66633;47.628;19.158;2023-03-04T03:53:55;15.43;;;6.53;;
77520;SDS011;66633;47.628;19.158;2023-03-04T03:56:20;26.90;;;10.60;;
77520;SDS011;66633;47.628;19.158;2023-03-04T03:58:45;19.35;;;7.30;;
77520;SDS011;66633;47.628;19.158;2023-03-04T04:01:11;21.58;;;8.43;;
77520;SDS011;66633;47.628;19.158;2023-03-04T04:03:36;27.47;;;11.10;;
77520;SDS011;66633;47.628;19.158;2023-03-04T04:06:01;18.30;;;7.03;;
77520;SDS011;66633;47.628;19.158;2023-03-04T04:08:27;20.50;;;8.68;;
77520;SDS011;66633;47.628;19.158;2023-03-04T04:10:52;19.60;;;7.90;;
77520;SDS011;66633;47.628;19.158;2023-03-04T04:13:17;15.23;;;6.13;;
77520;SDS011;66633;47.628;19.158;2023-03-04T04:15:43;16.42;;;7.35;;
77520;SDS011;66633;47.628;19.158;2023-03-04T04:18:08;22.60;;;8.63;;
77520;SDS011;66633;47.628;19.158;2023-03-04T04:20:34;27.45;;;10.93;;
77520;SDS011;66633;47.628;19.158;2023-03-04T04:22:59;14.43;;;7.00;;
77520;SDS011;66633;47.628;19.158;2023-03-04T04:25:24;23.42;;;9.15;;
77520;SDS011;66633;47.628;19.158;2023-03-04T04:27:50;22.15;;;9.25;;
77520;SDS011;66633;47.628;19.158;2023-03-04T04:30:15;19.13;;;7.53;;
77520;SDS011;66633;47.628;19.158;2023-03-04T04:32:40;16.77;;;7.37;;
77520;SDS011;66633;47.628;19.158;2023-03-04T04:35:06;23.95;;;8.73;;
77520;SDS011;66633;47.628;19.158;2023-03-04T04:37:32;27.27;;;10.48;;
77520;SDS011;66633;47.628;19.158;2023-03-04T04:39:57;27.23;;;10.48;;
77520;SDS011;66633;47.628;19.158;2023-03-04T04:42:22;23.98;;;9.05;;
77520;SDS011;66633;47.628;19.158;2023-03-04T04:44:48;27.60;;;10.33;;
77520;SDS011;66633;47.628;19.158;2023-03-04T04:47:13;31.85;;;13.55;;
77520;SDS011;66633;47.628;19.158;2023-03-04T04:49:38;23.92;;;9.02;;
77520;SDS011;66633;47.628;19.158;2023-03-04T04:52:03;19.37;;;8.07;;
77520;SDS011;66633;47.628;19.158;2023-03-04T04:54:29;25.77;;;11.03;;
77520;SDS011;66633;47.628;19.158;2023-03-04T04:56:54;19.13;;;7.35;;
77520;SDS011;66633;47.628;19.158;2023-03-04T04:59:19;22.90;;;8.70;;
77520;SDS011;66633;47.628;19.158;2023-03-04T05:01:45;33.42;;;12.93;;
77520;SDS011;66633;47.628;19.158;2023-03-04T05:04:10;28.53;;;11.93;;
77520;SDS011;66633;47.628;19.158;2023-03-04T05:06:35;35.28;;;15.80;;
77520;SDS011;66633;47.628;19.158;2023-03-04T05:09:01;32.03;;;13.50;;
77520;SDS011;66633;47.628;19.158;2023-03-04T05:11:26;38.30;;;15.93;;
77520;SDS011;66633;47.628;19.158;2023-03-04T05:13:51;59.17;;;18.65;;
77520;SDS011;66633;47.628;19.158;2023-03-04T05:16:16;53.00;;;19.50;;
77520;SDS011;66633;47.628;19.158;2023-03-04T05:18:42;37.67;;;14.32;;
77520;SDS011;66633;47.628;19.158;2023-03-04T05:21:07;40.13;;;14.48;;
77520;SDS011;66633;47.628;19.158;2023-03-04T05:23:34;39.53;;;15.85;;
77520;SDS011;66633;47.628;19.158;2023-03-04T05:26:00;28.92;;;11.75;;
77520;SDS011;66633;47.628;19.158;2023-03-04T05:28:25;36.03;;;13.70;;
77520;SDS011;66633;47.628;19.158;2023-03-04T05:30:50;36.22;;;12.13;;
77520;SDS011;66633;47.628;19.158;2023-03-04T05:33:16;29.60;;;10.30;;
77520;SDS011;66633;47.628;19.158;2023-03-04T05:35:42;33.20;;;12.43;;
77520;SDS011;66633;47.628;19.158;2023-03-04T05:38:08;30.45;;;11.18;;
77520;SDS011;66633;47.628;19.158;2023-03-04T05:40:34;35.05;;;15.65;;
77520;SDS011;66633;47.628;19.158;2023-03-04T05:42:59;46.67;;;17.27;;
77520;SDS011;66633;47.628;19.158;2023-03-04T05:45:25;32.15;;;12.63;;
77520;SDS011;66633;47.628;19.158;2023-03-04T05:47:51;30.27;;;12.75;;
77520;SDS011;66633;47.628;19.158;2023-03-04T05:50:17;25.83;;;10.13;;
77520;SDS011;66633;47.628;19.158;2023-03-04T05:52:42;23.80;;;8.45;;
77520;SDS011;66633;47.628;19.158;2023-03-04T05:55:08;21.50;;;10.10;;
77520;SDS011;66633;47.628;19.158;2023-03-04T05:57:33;20.17;;;8.27;;
77520;SDS011;66633;47.628;19.158;2023-03-04T05:59:58;23.47;;;9.60;;
77520;SDS011;66633;47.628;19.158;2023-03-04T06:02:23;28.57;;;10.83;;
77520;SDS011;66633;47.628;19.158;2023-03-04T06:04:49;28.35;;;11.65;;
77520;SDS011;66633;47.628;19.158;2023-03-04T06:07:14;21.13;;;8.63;;
77520;SDS011;66633;47.628;19.158;2023-03-04T06:09:39;17.27;;;7.10;;
77520;SDS011;66633;47.628;19.158;2023-03-04T06:12:05;20.70;;;7.60;;
77520;SDS011;66633;47.628;19.158;2023-03-04T06:14:30;27.13;;;11.02;;
77520;SDS011;66633;47.628;19.158;2023-03-04T06:16:55;39.43;;;16.00;;
77520;SDS011;66633;47.628;19.158;2023-03-04T06:19:20;31.73;;;12.73;;
77520;SDS011;66633;47.628;19.158;2023-03-04T06:21:46;41.67;;;17.57;;
77520;SDS011;66633;47.628;19.158;2023-03-04T06:24:11;53.93;;;23.10;;
77520;SDS011;66633;47.628;19.158;2023-03-04T06:26:36;32.55;;;14.75;;
77520;SDS011;66633;47.628;19.158;2023-03-04T06:29:03;26.83;;;11.20;;
77520;SDS011;66633;47.628;19.158;2023-03-04T06:31:28;32.47;;;13.85;;
77520;SDS011;66633;47.628;19.158;2023-03-04T06:33:53;35.70;;;14.47;;
77520;SDS011;66633;47.628;19.158;2023-03-04T06:36:19;29.70;;;12.77;;
77520;SDS011;66633;47.628;19.158;2023-03-04T06:38:44;31.90;;;13.68;;
77520;SDS011;66633;47.628;19.158;2023-03-04T06:41:10;33.38;;;14.55;;
77520;SDS011;66633;47.628;19.158;2023-03-04T06:43:36;35.03;;;15.00;;
77520;SDS011;66633;47.628;19.158;2023-03-04T06:46:01;43.53;;;17.02;;
77520;SDS011;66633;47.628;19.158;2023-03-04T06:48:27;39.95;;;16.38;;
77520;SDS011;66633;47.628;19.158;2023-03-04T06:50:52;48.78;;;18.83;;
77520;SDS011;66633;47.628;19.158;2023-03-04T06:53:17;44.88;;;19.67;;
77520;SDS011;66633;47.628;19.158;2023-03-04T06:55:43;37.58;;;16.48;;
77520;SDS011;66633;47.628;19.158;2023-03-04T06:58:08;46.35;;;19.02;;
77520;SDS011;66633;47.628;19.158;2023-03-04T07:00:34;37.42;;;16.40;;
77520;SDS011;66633;47.628;19.158;2023-03-04T07:03:00;32.80;;;12.87;;
77520;SDS011;66633;47.628;19.158;2023-03-04T07:05:26;30.15;;;12.85;;
77520;SDS011;66633;47.628;19.158;2023-03-04T07:07:51;31.10;;;14.50;;
77520;SDS011;66633;47.628;19.158;2023-03-04T07:10:17;24.03;;;11.67;;
77520;SDS011;66633;47.628;19.158;2023-03-04T07:12:42;23.23;;;10.13;;
77520;SDS011;66633;47.628;19.158;2023-03-04T07:15:08;29.25;;;12.40;;
77520;SDS011;66633;47.628;19.158;2023-03-04T07:17:33;27.55;;;11.50;;
77520;SDS011;66633;47.628;19.158;2023-03-04T07:19:59;27.52;;;11.65;;
77520;SDS011;66633;47.628;19.158;2023-03-04T07:22:24;25.38;;;10.63;;
77520;SDS011;66633;47.628;19.158;2023-03-04T07:24:49;23.33;;;9.40;;
77520;SDS011;66633;47.628;19.158;2023-03-04T07:27:14;23.25;;;10.00;;
77520;SDS011;66633;47.628;19.158;2023-03-04T07:29:40;20.63;;;9.80;;
77520;SDS011;66633;47.628;19.158;2023-03-04T07:32:08;26.30;;;11.03;;
77520;SDS011;66633;47.628;19.158;2023-03-04T07:34:34;28.42;;;13.00;;
77520;SDS011;66633;47.628;19.158;2023-03-04T07:36:59;25.83;;;12.07;;
77520;SDS011;66633;47.628;19.158;2023-03-04T07:39:24;28.27;;;12.23;;
77520;SDS011;66633;47.628;19.158;2023-03-04T07:41:49;27.87;;;12.77;;
77520;SDS011;66633;47.628;19.158;2023-03-04T07:44:15;23.85;;;11.15;;
77520;SDS011;66633;47.628;19.158;2023-03-04T07:46:40;27.33;;;11.47;;
77520;SDS011;66633;47.628;19.158;2023-03-04T07:49:05;21.90;;;10.00;;
77520;SDS011;66633;47.628;19.158;2023-03-04T07:51:31;23.65;;;10.80;;
77520;SDS011;66633;47.628;19.158;2023-03-04T07:53:57;24.15;;;10.25;;
77520;SDS011;66633;47.628;19.158;2023-03-04T07:56:25;24.15;;;11.45;;
77520;SDS011;66633;47.628;19.158;2023-03-04T07:58:51;26.67;;;10.90;;
77520;SDS011;66633;47.628;19.158;2023-03-04T08:01:21;26.75;;;11.25;;
77520;SDS011;66633;47.628;19.158;2023-03-04T08:03:48;26.05;;;11.52;;
77520;SDS011;66633;47.628;19.158;2023-03-04T08:06:14;22.75;;;10.52;;
77520;SDS011;66633;47.628;19.158;2023-03-04T08:08:39;20.45;;;9.43;;
77520;SDS011;66633;47.628;19.158;2023-03-04T08:11:09;19.73;;;8.35;;
77520;SDS011;66633;47.628;19.158;2023-03-04T08:13:35;24.13;;;10.43;;
77520;SDS011;66633;47.628;19.158;2023-03-04T08:16:01;24.67;;;10.65;;
77520;SDS011;66633;47.628;19.158;2023-03-04T08:18:26;19.85;;;8.73;;
77520;SDS011;66633;47.628;19.158;2023-03-04T08:20:52;21.37;;;9.07;;
77520;SDS011;66633;47.628;19.158;2023-03-04T08:23:17;15.15;;;7.10;;
77520;SDS011;66633;47.628;19.158;2023-03-04T08:25:42;13.15;;;5.95;;
77520;SDS011;66633;47.628;19.158;2023-03-04T08:28:08;14.02;;;5.72;;
77520;SDS011;66633;47.628;19.158;2023-03-04T08:30:34;13.82;;;5.40;;
77520;SDS011;66633;47.628;19.158;2023-03-04T08:33:00;11.30;;;4.97;;
77520;SDS011;66633;47.628;19.158;2023-03-04T08:35:25;13.98;;;5.40;;
77520;SDS011;66633;47.628;19.158;2023-03-04T08:37:51;16.77;;;7.13;;
77520;SDS011;66633;47.628;19.158;2023-03-04T08:40:16;13.57;;;6.03;;
77520;SDS011;66633;47.628;19.158;2023-03-04T08:42:41;16.15;;;6.93;;
77520;SDS011;66633;47.628;19.158;2023-03-04T08:45:07;16.90;;;7.97;;
77520;SDS011;66633;47.628;19.158;2023-03-04T08:47:33;14.15;;;6.43;;
77520;SDS011;66633;47.628;19.158;2023-03-04T08:49:58;17.93;;;7.30;;
77520;SDS011;66633;47.628;19.158;2023-03-04T08:52:24;15.80;;;7.60;;
77520;SDS011;66633;47.628;19.158;2023-03-04T08:54:49;16.60;;;7.32;;
77520;SDS011;66633;47.628;19.158;2023-03-04T08:57:15;17.13;;;7.32;;
77520;SDS011;66633;47.628;19.158;2023-03-04T08:59:40;18.33;;;8.63;;
77520;SDS011;66633;47.628;19.158;2023-03-04T09:02:05;21.95;;;8.25;;
77520;SDS011;66633;47.628;19.158;2023-03-04T09:04:31;18.33;;;8.45;;
77520;SDS011;66633;47.628;19.158;2023-03-04T09:06:56;21.23;;;10.23;;
77520;SDS011;66633;47.628;19.158;2023-03-04T09:09:21;19.93;;;8.90;;
77520;SDS011;66633;47.628;19.158;2023-03-04T09:11:47;23.17;;;8.60;;
77520;SDS011;66633;47.628;19.158;2023-03-04T09:14:12;20.30;;;9.23;;
77520;SDS011;66633;47.628;19.158;2023-03-04T09:16:37;22.53;;;11.10;;
77520;SDS011;66633;47.628;19.158;2023-03-04T09:19:02;22.75;;;10.40;;
77520;SDS011;66633;47.628;19.158;2023-03-04T09:21:28;19.43;;;9.80;;
77520;SDS011;66633;47.628;19.158;2023-03-04T09:23:53;19.40;;;10.93;;
77520;SDS011;66633;47.628;19.158;2023-03-04T09:26:20;41.78;;;11.25;;
77520;SDS011;66633;47.628;19.158;2023-03-04T09:28:51;19.48;;;8.65;;
77520;SDS011;66633;47.628;19.158;2023-03-04T09:31:16;23.83;;;10.07;;
77520;SDS011;66633;47.628;19.158;2023-03-04T09:33:41;23.03;;;11.30;;
77520;SDS011;66633;47.628;19.158;2023-03-04T09:36:10;23.10;;;10.95;;
77520;SDS011;66633;47.628;19.158;2023-03-04T09:38:36;27.65;;;12.88;;
77520;SDS011;66633;47.628;19.158;2023-03-04T09:41:03;22.15;;;10.32;;
77520;SDS011;66633;47.628;19.158;2023-03-04T09:43:29;21.95;;;10.00;;
77520;SDS011;66633;47.628;19.158;2023-03-04T09:45:56;21.48;;;10.70;;
77520;SDS011;66633;47.628;19.158;2023-03-04T09:48:24;23.77;;;11.50;;
77520;SDS011;66633;47.628;19.158;2023-03-04T09:53:34;20.63;;;9.57;;
77520;SDS011;66633;47.628;19.158;2023-03-04T09:56:04;22.30;;;11.23;;
77520;SDS011;66633;47.628;19.158;2023-03-04T10:01:00;23.33;;;11.45;;
77520;SDS011;66633;47.628;19.158;2023-03-04T10:03:39;22.30;;;10.73;;
77520;SDS011;66633;47.628;19.158;2023-03-04T10:06:09;21.58;;;10.63;;
77520;SDS011;66633;47.628;19.158;2023-03-04T10:16:41;23.00;;;10.25;;
77520;SDS011;66633;47.628;19.158;2023-03-04T10:21:53;22.75;;;10.05;;
77520;SDS011;66633;47.628;19.158;2023-03-04T10:24:19;22.65;;;10.73;;
77520;SDS011;66633;47.628;19.158;2023-03-04T10:26:51;20.27;;;10.25;;
77520;SDS011;66633;47.628;19.158;2023-03-04T10:32:20;21.77;;;11.35;;
77520;SDS011;66633;47.628;19.158;2023-03-04T10:34:46;26.92;;;12.30;;
77520;SDS011;66633;47.628;19.158;2023-03-04T10:37:11;19.33;;;10.00;;
77520;SDS011;66633;47.628;19.158;2023-03-04T10:42:05;21.05;;;10.27;;
77520;SDS011;66633;47.628;19.158;2023-03-04T10:44:32;19.83;;;10.15;;
77520;SDS011;66633;47.628;19.158;2023-03-04T10:46:58;18.58;;;9.15;;
77520;SDS011;66633;47.628;19.158;2023-03-04T10:49:25;21.42;;;10.05;;
77520;SDS011;66633;47.628;19.158;2023-03-04T10:51:52;18.25;;;9.75;;
77520;SDS011;66633;47.628;19.158;2023-03-04T10:57:02;18.80;;;8.50;;
77520;SDS011;66633;47.628;19.158;2023-03-04T11:01:54;21.15;;;10.40;;
77520;SDS011;66633;47.628;19.158;2023-03-04T11:04:22;18.93;;;9.47;;
77520;SDS011;66633;47.628;19.158;2023-03-04T11:06:49;17.30;;;8.82;;
77520;SDS011;66633;47.628;19.158;2023-03-04T11:09:22;19.08;;;9.30;;
77520;SDS011;66633;47.628;19.158;2023-03-04T11:11:49;18.63;;;9.45;;
77520;SDS011;66633;47.628;19.158;2023-03-04T11:16:40;21.47;;;9.87;;
77520;SDS011;66633;47.628;19.158;2023-03-04T11:19:19;17.85;;;9.65;;
77520;SDS011;66633;47.628;19.158;2023-03-04T11:21:45;19.88;;;9.90;;
77520;SDS011;66633;47.628;19.158;2023-03-04T11:24:16;17.60;;;9.35;;
77520;SDS011;66633;47.628;19.158;2023-03-04T11:26:45;19.60;;;10.40;;
77520;SDS011;66633;47.628;19.158;2023-03-04T11:37:00;20.47;;;10.80;;
77520;SDS011;66633;47.628;19.158;2023-03-04T11:39:31;21.92;;;10.07;;
77520;SDS011;66633;47.628;19.158;2023-03-04T11:44:42;22.02;;;10.93;;
77520;SDS011;66633;47.628;19.158;2023-03-04T11:50:19;20.77;;;11.25;;
77520;SDS011;66633;47.628;19.158;2023-03-04T12:00:15;19.60;;;10.70;;
77520;SDS011;66633;47.628;19.158;2023-03-04T12:05:45;22.45;;;11.15;;
77520;SDS011;66633;47.628;19.158;2023-03-04T12:11:12;20.60;;;10.65;;
77520;SDS011;66633;47.628;19.158;2023-03-04T12:24:09;19.77;;;10.43;;
77520;SDS011;66633;47.628;19.158;2023-03-04T12:31:45;19.27;;;10.55;;
77520;SDS011;66633;47.628;19.158;2023-03-04T12:34:25;20.02;;;10.25;;
77520;SDS011;66633;47.628;19.158;2023-03-04T12:37:00;20.73;;;10.30;;
77520;SDS011;66633;47.628;19.158;2023-03-04T12:50:52;20.55;;;10.00;;
77520;SDS011;66633;47.628;19.158;2023-03-04T12:56:41;19.20;;;10.57;;
77520;SDS011;66633;47.628;19.158;2023-03-04T12:59:11;20.70;;;10.35;;
77520;SDS011;66633;47.628;19.158;2023-03-04T13:04:18;20.52;;;10.27;;
77520;SDS011;66633;47.628;19.158;2023-03-04T13:06:48;20.27;;;9.68;;
77520;SDS011;66633;47.628;19.158;2023-03-04T13:09:22;18.10;;;9.88;;
77520;SDS011;66633;47.628;19.158;2023-03-04T13:14:34;19.75;;;9.52;;
77520;SDS011;66633;47.628;19.158;2023-03-04T13:27:48;16.13;;;8.73;;
77520;SDS011;66633;47.628;19.158;2023-03-04T13:32:58;16.80;;;9.00;;
77520;SDS011;66633;47.628;19.158;2023-03-04T13:41:05;19.90;;;9.65;;
77520;SDS011;66633;47.628;19.158;2023-03-04T13:43:37;17.67;;;8.98;;
77520;SDS011;66633;47.628;19.158;2023-03-04T13:51:35;17.25;;;7.82;;
77520;SDS011;66633;47.628;19.158;2023-03-04T13:56:43;16.27;;;7.57;;
77520;SDS011;66633;47.628;19.158;2023-03-04T14:06:51;12.63;;;6.35;;
77520;SDS011;66633;47.628;19.158;2023-03-04T14:11:45;14.50;;;7.65;;
77520;SDS011;66633;47.628;19.158;2023-03-04T14:14:12;12.98;;;6.07;;
77520;SDS011;66633;47.628;19.158;2023-03-04T14:16:38;11.60;;;6.15;;
77520;SDS011;66633;47.628;19.158;2023-03-04T14:19:06;13.88;;;6.40;;
77520;SDS011;66633;47.628;19.158;2023-03-04T14:21:32;14.18;;;7.00;;
77520;SDS011;66633;47.628;19.158;2023-03-04T14:24:06;13.32;;;6.00;;
77520;SDS011;66633;47.628;19.158;2023-03-04T14:26:32;11.85;;;6.20;;
77520;SDS011;66633;47.628;19.158;2023-03-04T14:28:58;12.32;;;6.57;;
77520;SDS011;66633;47.628;19.158;2023-03-04T14:31:26;14.45;;;7.22;;
77520;SDS011;66633;47.628;19.158;2023-03-04T14:33:56;13.77;;;7.85;;
77520;SDS011;66633;47.628;19.158;2023-03-04T14:36:24;13.38;;;6.82;;
77520;SDS011;66633;47.628;19.158;2023-03-04T14:38:53;15.25;;;8.10;;
77520;SDS011;66633;47.628;19.158;2023-03-04T14:43:55;15.45;;;7.40;;
77520;SDS011;66633;47.628;19.158;2023-03-04T14:46:22;16.95;;;9.05;;
77520;SDS011;66633;47.628;19.158;2023-03-04T14:48:50;16.95;;;8.25;;
77520;SDS011;66633;47.628;19.158;2023-03-04T14:56:42;17.83;;;8.60;;
77520;SDS011;66633;47.628;19.158;2023-03-04T14:59:10;16.65;;;9.38;;
77520;SDS011;66633;47.628;19.158;2023-03-04T15:01:37;18.95;;;9.18;;
77520;SDS011;66633;47.628;19.158;2023-03-04T15:04:06;19.00;;;9.50;;
77520;SDS011;66633;47.628;19.158;2023-03-04T15:06:53;17.10;;;8.30;;
77520;SDS011;66633;47.628;19.158;2023-03-04T15:16:55;19.45;;;9.68;;
77520;SDS011;66633;47.628;19.158;2023-03-04T15:19:25;20.48;;;10.95;;
77520;SDS011;66633;47.628;19.158;2023-03-04T15:24:16;19.05;;;9.25;;
77520;SDS011;66633;47.628;19.158;2023-03-04T15:26:42;18.07;;;8.20;;
77520;SDS011;66633;47.628;19.158;2023-03-04T15:29:12;18.15;;;8.73;;
77520;SDS011;66633;47.628;19.158;2023-03-04T15:31:38;16.73;;;8.63;;
77520;SDS011;66633;47.628;19.158;2023-03-04T15:34:08;20.77;;;10.73;;
77520;SDS011;66633;47.628;19.158;2023-03-04T15:36:35;22.10;;;9.38;;
77520;SDS011;66633;47.628;19.158;2023-03-04T15:39:01;20.20;;;9.35;;
77520;SDS011;66633;47.628;19.158;2023-03-04T15:41:26;18.67;;;9.35;;
77520;SDS011;66633;47.628;19.158;2023-03-04T15:43:52;16.58;;;8.07;;
77520;SDS011;66633;47.628;19.158;2023-03-04T15:46:18;16.83;;;7.45;;
77520;SDS011;66633;47.628;19.158;2023-03-04T15:48:44;16.73;;;7.32;;
77520;SDS011;66633;47.628;19.158;2023-03-04T15:51:14;15.02;;;7.85;;
77520;SDS011;66633;47.628;19.158;2023-03-04T15:53:41;16.45;;;7.85;;
77520;SDS011;66633;47.628;19.158;2023-03-04T15:56:13;19.50;;;8.45;;
77520;SDS011;66633;47.628;19.158;2023-03-04T15:58:39;18.58;;;8.40;;
77520;SDS011;66633;47.628;19.158;2023-03-04T16:01:04;19.33;;;9.13;;
77520;SDS011;66633;47.628;19.158;2023-03-04T16:03:30;16.42;;;8.27;;
77520;SDS011;66633;47.628;19.158;2023-03-04T16:05:56;18.38;;;8.38;;
77520;SDS011;66633;47.628;19.158;2023-03-04T16:08:22;21.83;;;10.77;;
77520;SDS011;66633;47.628;19.158;2023-03-04T16:10:51;20.98;;;8.43;;
77520;SDS011;66633;47.628;19.158;2023-03-04T16:13:18;19.10;;;8.10;;
77520;SDS011;66633;47.628;19.158;2023-03-04T16:15:44;21.63;;;9.45;;
77520;SDS011;66633;47.628;19.158;2023-03-04T16:18:10;18.33;;;8.18;;
77520;SDS011;66633;47.628;19.158;2023-03-04T16:20:35;21.80;;;10.10;;
77520;SDS011;66633;47.628;19.158;2023-03-04T16:23:01;21.45;;;9.50;;
77520;SDS011;66633;47.628;19.158;2023-03-04T16:25:26;23.30;;;9.95;;
77520;SDS011;66633;47.628;19.158;2023-03-04T16:27:53;21.15;;;9.80;;
77520;SDS011;66633;47.628;19.158;2023-03-04T16:30:26;23.05;;;9.93;;
77520;SDS011;66633;47.628;19.158;2023-03-04T16:32:52;23.00;;;10.23;;
77520;SDS011;66633;47.628;19.158;2023-03-04T16:35:18;21.17;;;10.35;;
77520;SDS011;66633;47.628;19.158;2023-03-04T16:37:44;22.38;;;10.30;;